sensor_id;sensor_type;location;lat;lon;timestamp;pressure;altitude;pressure_sealevel;temperature;humidity
63552;BME280;49698;48.072;7.800;2023-03-19T00:02:22;99188.59;;;11.41;69.94
63552;BME280;49698;48.072;7.800;2023-03-19T00:04:50;99190.50;;;11.41;69.91
63552;BME280;49698;48.072;7.800;2023-03-19T00:07:18;99190.00;;;11.39;69.91
63552;BME280;49698;48.072;7.800;2023-03-19T00:09:46;99192.97;;;11.37;70.25
63552;BME280;49698;48.072;7.800;2023-03-19T00:12:16;99200.25;;;11.37;70.14
63552;BME280;49698;48.072;7.800;2023-03-19T00:14:44;99199.47;;;11.36;69.91
63552;BME280;49698;48.072;7.800;2023-03-19T00:17:12;99200.03;;;11.33;69.86
63552;BME280;49698;48.072;7.800;2023-03-19T00:19:40;99200.03;;;11.33;70.23
63552;BME280;49698;48.072;7.800;2023-03-19T00:22:08;99202.25;;;11.31;69.88
63552;BME280;49698;48.072;7.800;2023-03-19T00:24:36;99206.53;;;11.32;70.20
63552;BME280;49698;48.072;7.800;2023-03-19T00:27:04;99211.91;;;11.32;69.77
63552;BME280;49698;48.072;7.800;2023-03-19T00:29:33;99211.91;;;11.32;69.70
63552;BME280;49698;48.072;7.800;2023-03-19T00:32:02;99211.59;;;11.34;69.01
63552;BME280;49698;48.072;7.800;2023-03-19T00:34:30;99219.88;;;11.37;68.02
63552;BME280;49698;48.072;7.800;2023-03-19T00:36:57;99226.81;;;11.43;67.83
63552;BME280;49698;48.072;7.800;2023-03-19T00:39:26;99224.03;;;11.48;67.37
63552;BME280;49698;48.072;7.800;2023-03-19T00:41:53;99228.03;;;11.51;66.82
63552;BME280;49698;48.072;7.800;2023-03-19T00:44:22;99246.00;;;11.56;65.94
63552;BME280;49698;48.072;7.800;2023-03-19T00:46:51;99243.22;;;11.61;65.91
63552;BME280;49698;48.072;7.800;2023-03-19T00:49:19;99239.16;;;11.63;64.96
63552;BME280;49698;48.072;7.800;2023-03-19T00:51:47;99249.03;;;11.68;64.42
63552;BME280;49698;48.072;7.800;2023-03-19T00:54:15;99243.06;;;11.71;64.01
63552;BME280;49698;48.072;7.800;2023-03-19T00:56:44;99235.47;;;11.73;63.96
63552;BME280;49698;48.072;7.800;2023-03-19T00:59:12;99244.88;;;11.75;63.92
63552;BME280;49698;48.072;7.800;2023-03-19T01:01:40;99232.72;;;11.78;63.92
63552;BME280;49698;48.072;7.800;2023-03-19T01:04:09;99242.91;;;11.81;64.05
63552;BME280;49698;48.072;7.800;2023-03-19T01:06:38;99238.03;;;11.83;64.35
63552;BME280;49698;48.072;7.800;2023-03-19T01:09:06;99223.47;;;11.84;64.60
63552;BME280;49698;48.072;7.800;2023-03-19T01:11:34;99226.16;;;11.84;64.89
63552;BME280;49698;48.072;7.800;2023-03-19T01:14:03;99224.56;;;11.83;65.41
63552;BME280;49698;48.072;7.800;2023-03-19T01:16:31;99226.75;;;11.81;66.53
63552;BME280;49698;48.072;7.800;2023-03-19T01:19:00;99234.09;;;11.75;67.09
63552;BME280;49698;48.072;7.800;2023-03-19T01:21:30;99218.03;;;11.70;68.17
63552;BME280;49698;48.072;7.800;2023-03-19T01:23:59;99213.53;;;11.66;68.59
63552;BME280;49698;48.072;7.800;2023-03-19T01:26:28;99208.22;;;11.61;69.17
63552;BME280;49698;48.072;7.800;2023-03-19T01:29:07;99213.16;;;11.54;69.91
63552;BME280;49698;48.072;7.800;2023-03-19T01:31:36;99207.06;;;11.48;71.21
63552;BME280;49698;48.072;7.800;2023-03-19T01:34:20;99205.53;;;11.42;71.47
63552;BME280;49698;48.072;7.800;2023-03-19T01:36:54;99202.94;;;11.37;71.85
63552;BME280;49698;48.072;7.800;2023-03-19T01:39:30;99208.41;;;11.32;72.59
63552;BME280;49698;48.072;7.800;2023-03-19T01:42:01;99210.34;;;11.26;73.02
63552;BME280;49698;48.072;7.800;2023-03-19T01:44:47;99206.16;;;11.20;73.25
63552;BME280;49698;48.072;7.800;2023-03-19T01:47:46;99213.22;;;11.16;73.49
63552;BME280;49698;48.072;7.800;2023-03-19T01:50:24;99215.13;;;11.15;73.55
63552;BME280;49698;48.072;7.800;2023-03-19T01:53:14;99215.69;;;11.12;73.69
63552;BME280;49698;48.072;7.800;2023-03-19T01:55:49;99215.69;;;11.12;73.54
63552;BME280;49698;48.072;7.800;2023-03-19T01:58:36;99211.69;;;11.10;73.94
63552;BME280;49698;48.072;7.800;2023-03-19T02:01:11;99214.66;;;11.08;74.22
63552;BME280;49698;48.072;7.800;2023-03-19T02:03:43;99208.50;;;11.08;74.46
63552;BME280;49698;48.072;7.800;2023-03-19T02:06:16;99210.09;;;11.09;74.64
63552;BME280;49698;48.072;7.800;2023-03-19T02:08:48;99206.28;;;11.10;74.62
63552;BME280;49698;48.072;7.800;2023-03-19T02:11:17;99206.28;;;11.10;74.97
63552;BME280;49698;48.072;7.800;2023-03-19T02:13:46;99200.91;;;11.10;75.06
63552;BME280;49698;48.072;7.800;2023-03-19T02:16:14;99199.31;;;11.09;75.05
63552;BME280;49698;48.072;7.800;2023-03-19T02:18:43;99196.13;;;11.07;75.48
63552;BME280;49698;48.072;7.800;2023-03-19T02:21:13;99200.25;;;10.99;75.40
63552;BME280;49698;48.072;7.800;2023-03-19T02:23:48;99198.44;;;10.94;76.00
63552;BME280;49698;48.072;7.800;2023-03-19T02:26:26;99205.41;;;10.95;76.09
63552;BME280;49698;48.072;7.800;2023-03-19T02:29:00;99197.34;;;10.95;76.27
63552;BME280;49698;48.072;7.800;2023-03-19T02:31:33;99202.72;;;10.95;76.29
63552;BME280;49698;48.072;7.800;2023-03-19T02:34:03;99200.63;;;10.92;76.64
63552;BME280;49698;48.072;7.800;2023-03-19T02:36:34;99194.44;;;10.92;76.40
63552;BME280;49698;48.072;7.800;2023-03-19T02:39:07;99196.31;;;10.91;77.01
63552;BME280;49698;48.072;7.800;2023-03-19T02:41:40;99196.63;;;10.90;77.17
63552;BME280;49698;48.072;7.800;2023-03-19T02:44:09;99201.22;;;10.89;77.11
63552;BME280;49698;48.072;7.800;2023-03-19T02:46:38;99201.22;;;10.89;77.40
63552;BME280;49698;48.072;7.800;2023-03-19T02:49:06;99203.91;;;10.89;77.57
63552;BME280;49698;48.072;7.800;2023-03-19T02:51:34;99209.53;;;10.88;77.84
63552;BME280;49698;48.072;7.800;2023-03-19T02:54:03;99203.97;;;10.84;77.90
63552;BME280;49698;48.072;7.800;2023-03-19T02:56:31;99197.53;;;10.80;77.69
63552;BME280;49698;48.072;7.800;2023-03-19T02:59:00;99197.34;;;10.76;78.21
63552;BME280;49698;48.072;7.800;2023-03-19T03:01:28;99204.66;;;10.71;78.84
63552;BME280;49698;48.072;7.800;2023-03-19T03:03:56;99202.28;;;10.69;78.38
63552;BME280;49698;48.072;7.800;2023-03-19T03:06:25;99200.94;;;10.67;78.25
63552;BME280;49698;48.072;7.800;2023-03-19T03:08:53;99208.00;;;10.63;78.72
63552;BME280;49698;48.072;7.800;2023-03-19T03:11:24;99204.78;;;10.61;79.00
63552;BME280;49698;48.072;7.800;2023-03-19T03:13:52;99205.38;;;10.58;79.08
63552;BME280;49698;48.072;7.800;2023-03-19T03:16:22;99204.56;;;10.57;79.28
63552;BME280;49698;48.072;7.800;2023-03-19T03:18:50;99201.91;;;10.57;79.30
63552;BME280;49698;48.072;7.800;2023-03-19T03:21:18;99206.97;;;10.59;79.62
63552;BME280;49698;48.072;7.800;2023-03-19T03:23:47;99204.56;;;10.57;79.32
63552;BME280;49698;48.072;7.800;2023-03-19T03:26:15;99208.34;;;10.56;79.06
63552;BME280;49698;48.072;7.800;2023-03-19T03:28:43;99202.97;;;10.56;79.51
63552;BME280;49698;48.072;7.800;2023-03-19T03:31:12;99205.94;;;10.55;80.06
63552;BME280;49698;48.072;7.800;2023-03-19T03:33:41;99210.28;;;10.50;79.75
63552;BME280;49698;48.072;7.800;2023-03-19T03:36:09;99203.38;;;10.44;80.15
63552;BME280;49698;48.072;7.800;2023-03-19T03:38:38;99211.19;;;10.41;80.20
63552;BME280;49698;48.072;7.800;2023-03-19T03:41:06;99217.97;;;10.38;80.47
63552;BME280;49698;48.072;7.800;2023-03-19T03:43:34;99218.53;;;10.35;80.15
63552;BME280;49698;48.072;7.800;2023-03-19T03:46:02;99219.63;;;10.34;80.58
63552;BME280;49698;48.072;7.800;2023-03-19T03:48:30;99225.25;;;10.33;80.32
63552;BME280;49698;48.072;7.800;2023-03-19T03:51:00;99215.91;;;10.30;80.49
63552;BME280;49698;48.072;7.800;2023-03-19T03:53:29;99219.38;;;10.31;80.78
63552;BME280;49698;48.072;7.800;2023-03-19T03:55:57;99222.34;;;10.29;80.32
63552;BME280;49698;48.072;7.800;2023-03-19T03:58:26;99232.03;;;10.30;80.60
63552;BME280;49698;48.072;7.800;2023-03-19T04:00:55;99232.03;;;10.30;80.59
63552;BME280;49698;48.072;7.800;2023-03-19T04:03:23;99237.09;;;10.32;80.31
63552;BME280;49698;48.072;7.800;2023-03-19T04:05:52;99234.41;;;10.32;80.75
63552;BME280;49698;48.072;7.800;2023-03-19T04:08:22;99249.72;;;10.31;80.66
63552;BME280;49698;48.072;7.800;2023-03-19T04:10:50;99248.41;;;10.28;81.04
63552;BME280;49698;48.072;7.800;2023-03-19T04:13:18;99246.81;;;10.27;80.78
63552;BME280;49698;48.072;7.800;2023-03-19T04:15:47;99250.84;;;10.25;81.15
63552;BME280;49698;48.072;7.800;2023-03-19T04:18:16;99249.22;;;10.24;80.71
63552;BME280;49698;48.072;7.800;2023-03-19T04:20:44;99248.69;;;10.22;80.85
63552;BME280;49698;48.072;7.800;2023-03-19T04:23:12;99247.16;;;10.16;80.89
63552;BME280;49698;48.072;7.800;2023-03-19T04:25:41;99248.25;;;10.15;81.27
63552;BME280;49698;48.072;7.800;2023-03-19T04:28:09;99254.66;;;10.19;81.04
63552;BME280;49698;48.072;7.800;2023-03-19T04:30:37;99251.69;;;10.20;80.89
63552;BME280;49698;48.072;7.800;2023-03-19T04:33:06;99249.53;;;10.22;81.00
63552;BME280;49698;48.072;7.800;2023-03-19T04:35:34;99254.59;;;10.24;81.06
63552;BME280;49698;48.072;7.800;2023-03-19T04:38:02;99258.91;;;10.25;80.63
63552;BME280;49698;48.072;7.800;2023-03-19T04:40:31;99256.22;;;10.25;80.77
63552;BME280;49698;48.072;7.800;2023-03-19T04:43:01;99256.22;;;10.25;81.05
63552;BME280;49698;48.072;7.800;2023-03-19T04:45:34;99247.09;;;10.26;80.54
63552;BME280;49698;48.072;7.800;2023-03-19T04:48:04;99247.09;;;10.26;80.76
63552;BME280;49698;48.072;7.800;2023-03-19T04:50:33;99254.06;;;10.27;80.54
63552;BME280;49698;48.072;7.800;2023-03-19T04:53:02;99249.22;;;10.29;80.76
63552;BME280;49698;48.072;7.800;2023-03-19T04:55:30;99256.19;;;10.30;80.49
63552;BME280;49698;48.072;7.800;2023-03-19T04:58:19;99249.72;;;10.31;79.97
63552;BME280;49698;48.072;7.800;2023-03-19T05:00:55;99257.22;;;10.34;79.63
63552;BME280;49698;48.072;7.800;2023-03-19T05:03:39;99252.34;;;10.36;79.29
63552;BME280;49698;48.072;7.800;2023-03-19T05:06:07;99253.94;;;10.37;79.14
63552;BME280;49698;48.072;7.800;2023-03-19T05:08:35;99250.47;;;10.37;79.08
63552;BME280;49698;48.072;7.800;2023-03-19T05:11:04;99251.25;;;10.37;78.77
63552;BME280;49698;48.072;7.800;2023-03-19T05:13:46;99260.16;;;10.38;78.54
63552;BME280;49698;48.072;7.800;2023-03-19T05:16:14;99255.56;;;10.38;78.67
63552;BME280;49698;48.072;7.800;2023-03-19T05:18:42;99258.53;;;10.37;78.32
63552;BME280;49698;48.072;7.800;2023-03-19T05:21:11;99262.31;;;10.36;77.88
63552;BME280;49698;48.072;7.800;2023-03-19T05:23:40;99265.78;;;10.36;77.27
63552;BME280;49698;48.072;7.800;2023-03-19T05:26:09;99270.91;;;10.38;76.99
63552;BME280;49698;48.072;7.800;2023-03-19T05:29:01;99264.13;;;10.40;76.75
63552;BME280;49698;48.072;7.800;2023-03-19T05:31:38;99271.69;;;10.38;76.25
63552;BME280;49698;48.072;7.800;2023-03-19T05:34:07;99257.16;;;10.39;76.11
63552;BME280;49698;48.072;7.800;2023-03-19T05:36:35;99268.16;;;10.43;75.10
63552;BME280;49698;48.072;7.800;2023-03-19T05:39:08;99265.13;;;10.49;74.44
63552;BME280;49698;48.072;7.800;2023-03-19T05:41:39;99267.53;;;10.51;74.16
63552;BME280;49698;48.072;7.800;2023-03-19T05:44:08;99272.03;;;10.56;73.44
63552;BME280;49698;48.072;7.800;2023-03-19T05:46:45;99266.66;;;10.56;72.77
63552;BME280;49698;48.072;7.800;2023-03-19T05:49:15;99272.03;;;10.56;72.60
63552;BME280;49698;48.072;7.800;2023-03-19T05:51:43;99268.56;;;10.55;72.43
63552;BME280;49698;48.072;7.800;2023-03-19T05:54:11;99268.03;;;10.53;71.49
63552;BME280;49698;48.072;7.800;2023-03-19T05:56:56;99269.91;;;10.52;71.21
63552;BME280;49698;48.072;7.800;2023-03-19T05:59:41;99270.50;;;10.49;71.16
63552;BME280;49698;48.072;7.800;2023-03-19T06:02:30;99274.56;;;10.47;71.21
63552;BME280;49698;48.072;7.800;2023-03-19T06:05:13;99271.34;;;10.45;71.07
63552;BME280;49698;48.072;7.800;2023-03-19T06:07:41;99274.84;;;10.45;70.59
63552;BME280;49698;48.072;7.800;2023-03-19T06:10:17;99273.22;;;10.44;70.27
63552;BME280;49698;48.072;7.800;2023-03-19T06:12:52;99278.09;;;10.42;70.20
63552;BME280;49698;48.072;7.800;2023-03-19T06:15:35;99285.38;;;10.42;70.37
63552;BME280;49698;48.072;7.800;2023-03-19T06:18:21;99289.13;;;10.41;70.05
63552;BME280;49698;48.072;7.800;2023-03-19T06:20:49;99285.41;;;10.37;70.10
63552;BME280;49698;48.072;7.800;2023-03-19T06:23:17;99278.44;;;10.36;70.12
63552;BME280;49698;48.072;7.800;2023-03-19T06:25:45;99284.09;;;10.34;69.80
63552;BME280;49698;48.072;7.800;2023-03-19T06:28:14;99296.16;;;10.37;69.82
63552;BME280;49698;48.072;7.800;2023-03-19T06:30:45;99290.22;;;10.40;69.86
63552;BME280;49698;48.072;7.800;2023-03-19T06:33:31;99296.91;;;10.42;69.77
63552;BME280;49698;48.072;7.800;2023-03-19T06:35:59;99298.41;;;10.53;69.62
63552;BME280;49698;48.072;7.800;2023-03-19T06:38:30;99296.94;;;10.66;69.05
63552;BME280;49698;48.072;7.800;2023-03-19T06:40:58;99298.09;;;10.84;68.88
63552;BME280;49698;48.072;7.800;2023-03-19T06:43:28;99301.00;;;11.07;68.42
63552;BME280;49698;48.072;7.800;2023-03-19T06:45:58;99304.25;;;11.27;67.87
63552;BME280;49698;48.072;7.800;2023-03-19T06:48:26;99308.56;;;11.47;67.17
63552;BME280;49698;48.072;7.800;2023-03-19T06:50:54;99302.28;;;11.71;66.82
63552;BME280;49698;48.072;7.800;2023-03-19T06:53:22;99313.88;;;11.90;66.37
63552;BME280;49698;48.072;7.800;2023-03-19T06:55:51;99316.81;;;12.08;66.31
63552;BME280;49698;48.072;7.800;2023-03-19T06:58:19;99315.56;;;12.19;65.98
63552;BME280;49698;48.072;7.800;2023-03-19T07:00:47;99311.38;;;12.27;65.92
63552;BME280;49698;48.072;7.800;2023-03-19T07:03:17;99314.22;;;12.35;65.80
63552;BME280;49698;48.072;7.800;2023-03-19T07:05:47;99314.81;;;12.46;65.61
63552;BME280;49698;48.072;7.800;2023-03-19T07:08:15;99314.97;;;12.55;65.61
63552;BME280;49698;48.072;7.800;2023-03-19T07:10:43;99319.16;;;12.61;65.52
63552;BME280;49698;48.072;7.800;2023-03-19T07:13:11;99321.03;;;12.60;65.30
63552;BME280;49698;48.072;7.800;2023-03-19T07:15:39;99321.94;;;12.56;65.34
63552;BME280;49698;48.072;7.800;2023-03-19T07:18:07;99324.72;;;12.51;65.57
63552;BME280;49698;48.072;7.800;2023-03-19T07:20:37;99328.50;;;12.49;65.47
63552;BME280;49698;48.072;7.800;2023-03-19T07:23:05;99332.22;;;12.54;64.87
63552;BME280;49698;48.072;7.800;2023-03-19T07:25:32;99329.13;;;12.60;64.34
63552;BME280;49698;48.072;7.800;2023-03-19T07:28:00;99323.84;;;12.69;63.93
63552;BME280;49698;48.072;7.800;2023-03-19T07:30:28;99330.38;;;12.82;63.30
63552;BME280;49698;48.072;7.800;2023-03-19T07:32:56;99330.34;;;12.95;62.47
63552;BME280;49698;48.072;7.800;2023-03-19T07:35:24;99331.66;;;13.12;61.84
63552;BME280;49698;48.072;7.800;2023-03-19T07:37:54;99329.78;;;13.26;61.09
63552;BME280;49698;48.072;7.800;2023-03-19T07:40:21;99340.97;;;13.33;60.20
63552;BME280;49698;48.072;7.800;2023-03-19T07:42:52;99344.34;;;13.39;59.54
63552;BME280;49698;48.072;7.800;2023-03-19T07:45:20;99348.34;;;13.41;58.83
63552;BME280;49698;48.072;7.800;2023-03-19T07:47:48;99348.75;;;13.49;58.60
63552;BME280;49698;48.072;7.800;2023-03-19T07:50:17;99349.59;;;13.58;58.18
63552;BME280;49698;48.072;7.800;2023-03-19T07:52:45;99349.06;;;13.69;57.74
63552;BME280;49698;48.072;7.800;2023-03-19T07:55:15;99345.84;;;13.81;57.60
63552;BME280;49698;48.072;7.800;2023-03-19T07:57:43;99358.44;;;13.86;57.23
63552;BME280;49698;48.072;7.800;2023-03-19T08:00:12;99356.44;;;13.91;57.26
63552;BME280;49698;48.072;7.800;2023-03-19T08:02:43;99359.50;;;13.99;57.13
63552;BME280;49698;48.072;7.800;2023-03-19T08:05:11;99363.38;;;14.06;57.00
63552;BME280;49698;48.072;7.800;2023-03-19T08:07:41;99349.94;;;14.15;56.63
63552;BME280;49698;48.072;7.800;2023-03-19T08:10:11;99357.16;;;14.28;56.43
63552;BME280;49698;48.072;7.800;2023-03-19T08:12:40;99359.97;;;14.46;55.90
63552;BME280;49698;48.072;7.800;2023-03-19T08:15:10;99356.13;;;14.60;55.83
63552;BME280;49698;48.072;7.800;2023-03-19T08:17:38;99352.09;;;14.80;55.25
63552;BME280;49698;48.072;7.800;2023-03-19T08:20:08;99354.72;;;15.03;54.90
63552;BME280;49698;48.072;7.800;2023-03-19T08:22:37;99352.56;;;15.22;54.35
63552;BME280;49698;48.072;7.800;2023-03-19T08:25:07;99356.72;;;15.37;53.92
63552;BME280;49698;48.072;7.800;2023-03-19T08:27:36;99357.22;;;15.48;53.60
63552;BME280;49698;48.072;7.800;2023-03-19T08:30:08;99351.34;;;15.54;53.21
63552;BME280;49698;48.072;7.800;2023-03-19T08:32:36;99351.66;;;15.61;53.26
63552;BME280;49698;48.072;7.800;2023-03-19T08:35:05;99348.63;;;15.63;53.27
63552;BME280;49698;48.072;7.800;2023-03-19T08:37:33;99350.22;;;15.64;53.25
63552;BME280;49698;48.072;7.800;2023-03-19T08:40:01;99350.28;;;15.73;53.14
63552;BME280;49698;48.072;7.800;2023-03-19T08:42:30;99362.25;;;15.80;52.94
63552;BME280;49698;48.072;7.800;2023-03-19T08:45:00;99356.47;;;15.90;52.24
63552;BME280;49698;48.072;7.800;2023-03-19T08:47:30;99363.84;;;16.07;51.94
63552;BME280;49698;48.072;7.800;2023-03-19T08:49:58;99356.47;;;16.34;51.54
63552;BME280;49698;48.072;7.800;2023-03-19T08:52:26;99356.56;;;16.55;50.81
63552;BME280;49698;48.072;7.800;2023-03-19T08:54:54;99354.47;;;16.78;50.53
63552;BME280;49698;48.072;7.800;2023-03-19T08:57:22;99359.50;;;16.97;49.87
63552;BME280;49698;48.072;7.800;2023-03-19T08:59:51;99364.13;;;17.26;49.57
63552;BME280;49698;48.072;7.800;2023-03-19T09:02:19;99373.44;;;17.46;49.24
63552;BME280;49698;48.072;7.800;2023-03-19T09:04:48;99364.94;;;17.56;48.99
63552;BME280;49698;48.072;7.800;2023-03-19T09:07:16;99368.50;;;17.48;48.89
63552;BME280;49698;48.072;7.800;2023-03-19T09:09:44;99375.09;;;17.38;49.03
63552;BME280;49698;48.072;7.800;2023-03-19T09:12:14;99377.66;;;17.34;49.12
63552;BME280;49698;48.072;7.800;2023-03-19T09:14:43;99376.06;;;17.63;48.64
63552;BME280;49698;48.072;7.800;2023-03-19T09:17:11;99372.06;;;17.90;48.09
63552;BME280;49698;48.072;7.800;2023-03-19T09:19:41;99380.16;;;17.99;47.78
63552;BME280;49698;48.072;7.800;2023-03-19T09:22:10;99387.06;;;17.75;48.21
63552;BME280;49698;48.072;7.800;2023-03-19T09:24:38;99381.16;;;17.44;48.93
63552;BME280;49698;48.072;7.800;2023-03-19T09:27:06;99392.34;;;17.13;49.76
63552;BME280;49698;48.072;7.800;2023-03-19T09:29:34;99389.25;;;16.84;50.82
63552;BME280;49698;48.072;7.800;2023-03-19T09:32:02;99382.72;;;16.77;51.07
63552;BME280;49698;48.072;7.800;2023-03-19T09:34:31;99389.56;;;16.83;50.80
63552;BME280;49698;48.072;7.800;2023-03-19T09:37:00;99380.09;;;16.98;50.74
63552;BME280;49698;48.072;7.800;2023-03-19T09:39:29;99398.06;;;17.11;50.38
63552;BME280;49698;48.072;7.800;2023-03-19T09:42:06;99392.84;;;17.06;50.53
63552;BME280;49698;48.072;7.800;2023-03-19T09:44:37;99387.75;;;16.96;50.57
63552;BME280;49698;48.072;7.800;2023-03-19T09:47:17;99398.47;;;17.01;50.74
63552;BME280;49698;48.072;7.800;2023-03-19T09:49:52;99401.31;;;16.96;50.72
63552;BME280;49698;48.072;7.800;2023-03-19T09:52:30;99399.16;;;16.80;50.87
63552;BME280;49698;48.072;7.800;2023-03-19T09:55:08;99398.88;;;16.73;51.23
63552;BME280;49698;48.072;7.800;2023-03-19T09:57:40;99387.47;;;16.89;50.91
63552;BME280;49698;48.072;7.800;2023-03-19T10:00:19;99397.31;;;17.02;50.58
63552;BME280;49698;48.072;7.800;2023-03-19T10:02:53;99390.88;;;17.15;50.17
63552;BME280;49698;48.072;7.800;2023-03-19T10:05:28;99392.78;;;17.23;50.18
63552;BME280;49698;48.072;7.800;2023-03-19T10:08:25;99392.88;;;17.35;50.08
63552;BME280;49698;48.072;7.800;2023-03-19T10:11:08;99388.41;;;17.31;50.15
63552;BME280;49698;48.072;7.800;2023-03-19T10:13:54;99391.00;;;17.19;50.58
63552;BME280;49698;48.072;7.800;2023-03-19T10:16:27;99401.78;;;17.06;50.79
63552;BME280;49698;48.072;7.800;2023-03-19T10:18:58;99402.88;;;17.14;50.94
63552;BME280;49698;48.072;7.800;2023-03-19T10:21:30;99404.78;;;17.14;50.94
63552;BME280;49698;48.072;7.800;2023-03-19T10:24:02;99396.38;;;16.98;51.28
63552;BME280;49698;48.072;7.800;2023-03-19T10:26:33;99396.47;;;16.80;51.74
63552;BME280;49698;48.072;7.800;2023-03-19T10:29:05;99398.34;;;16.71;52.07
63552;BME280;49698;48.072;7.800;2023-03-19T10:31:42;99403.97;;;16.66;52.32
63552;BME280;49698;48.072;7.800;2023-03-19T10:34:22;99412.09;;;16.66;52.47
63552;BME280;49698;48.072;7.800;2023-03-19T10:36:58;99404.56;;;16.72;52.51
63552;BME280;49698;48.072;7.800;2023-03-19T10:39:27;99394.03;;;16.79;52.61
63552;BME280;49698;48.072;7.800;2023-03-19T10:42:05;99399.63;;;16.82;52.21
63552;BME280;49698;48.072;7.800;2023-03-19T10:44:37;99393.56;;;16.85;52.34
63552;BME280;49698;48.072;7.800;2023-03-19T10:47:10;99393.56;;;16.85;52.37
63552;BME280;49698;48.072;7.800;2023-03-19T10:49:39;99396.63;;;16.75;52.64
63552;BME280;49698;48.072;7.800;2023-03-19T10:52:17;99394.88;;;16.62;52.94
63552;BME280;49698;48.072;7.800;2023-03-19T10:54:46;99402.06;;;16.58;52.92
63552;BME280;49698;48.072;7.800;2023-03-19T10:57:24;99392.16;;;16.62;53.02
63552;BME280;49698;48.072;7.800;2023-03-19T10:59:53;99397.09;;;16.77;52.70
63552;BME280;49698;48.072;7.800;2023-03-19T11:02:23;99389.53;;;16.92;52.58
63552;BME280;49698;48.072;7.800;2023-03-19T11:05:06;99393.78;;;17.10;52.37
63552;BME280;49698;48.072;7.800;2023-03-19T11:07:36;99386.94;;;17.33;51.86
63552;BME280;49698;48.072;7.800;2023-03-19T11:10:11;99387.69;;;17.72;50.95
63552;BME280;49698;48.072;7.800;2023-03-19T11:12:46;99381.28;;;17.98;50.31
63552;BME280;49698;48.072;7.800;2023-03-19T11:15:19;99383.13;;;18.06;49.86
63552;BME280;49698;48.072;7.800;2023-03-19T11:17:54;99381.22;;;18.06;49.87
63552;BME280;49698;48.072;7.800;2023-03-19T11:20:27;99382.88;;;17.99;49.99
63552;BME280;49698;48.072;7.800;2023-03-19T11:22:57;99390.03;;;17.82;50.26
63552;BME280;49698;48.072;7.800;2023-03-19T11:25:29;99380.00;;;17.74;50.39
63552;BME280;49698;48.072;7.800;2023-03-19T11:28:06;99370.84;;;17.58;50.57
63552;BME280;49698;48.072;7.800;2023-03-19T11:30:42;99383.94;;;17.56;50.43
63552;BME280;49698;48.072;7.800;2023-03-19T11:33:32;99380.38;;;17.64;50.31
63552;BME280;49698;48.072;7.800;2023-03-19T11:36:09;99371.38;;;17.72;50.13
63552;BME280;49698;48.072;7.800;2023-03-19T11:38:47;99366.59;;;17.69;49.92
63552;BME280;49698;48.072;7.800;2023-03-19T11:41:26;99368.06;;;17.67;50.13
63552;BME280;49698;48.072;7.800;2023-03-19T11:44:01;99370.75;;;17.75;50.13
63552;BME280;49698;48.072;7.800;2023-03-19T11:46:36;99357.78;;;17.72;50.29
63552;BME280;49698;48.072;7.800;2023-03-19T11:49:14;99367.06;;;17.71;50.34
63552;BME280;49698;48.072;7.800;2023-03-19T11:51:48;99358.19;;;17.62;50.48
63552;BME280;49698;48.072;7.800;2023-03-19T11:54:22;99369.72;;;17.59;50.51
63552;BME280;49698;48.072;7.800;2023-03-19T11:56:57;99361.28;;;17.52;50.91
63552;BME280;49698;48.072;7.800;2023-03-19T11:59:40;99360.50;;;17.51;50.88
63552;BME280;49698;48.072;7.800;2023-03-19T12:02:23;99358.91;;;17.50;50.92
63552;BME280;49698;48.072;7.800;2023-03-19T12:05:02;99352.13;;;17.35;51.00
63552;BME280;49698;48.072;7.800;2023-03-19T12:07:39;99355.34;;;17.29;51.45
63552;BME280;49698;48.072;7.800;2023-03-19T12:10:26;99351.19;;;17.31;51.45
63552;BME280;49698;48.072;7.800;2023-03-19T12:13:02;99355.81;;;17.31;51.41
63552;BME280;49698;48.072;7.800;2023-03-19T12:15:43;99353.22;;;17.34;50.88
63552;BME280;49698;48.072;7.800;2023-03-19T12:18:21;99353.41;;;17.29;51.06
63552;BME280;49698;48.072;7.800;2023-03-19T12:20:55;99354.75;;;17.23;51.38
63552;BME280;49698;48.072;7.800;2023-03-19T12:23:38;99355.41;;;17.20;51.35
63552;BME280;49698;48.072;7.800;2023-03-19T12:26:14;99349.47;;;17.18;51.57
63552;BME280;49698;48.072;7.800;2023-03-19T12:28:50;99358.13;;;17.20;51.50
63552;BME280;49698;48.072;7.800;2023-03-19T12:31:36;99350.81;;;17.12;51.74
63552;BME280;49698;48.072;7.800;2023-03-19T12:34:21;99358.38;;;16.98;52.15
63552;BME280;49698;48.072;7.800;2023-03-19T12:36:54;99360.34;;;16.89;52.44
63552;BME280;49698;48.072;7.800;2023-03-19T12:39:28;99358.91;;;16.82;52.40
63552;BME280;49698;48.072;7.800;2023-03-19T12:41:58;99358.59;;;16.75;52.33
63552;BME280;49698;48.072;7.800;2023-03-19T12:44:31;99356.06;;;16.70;52.35
63552;BME280;49698;48.072;7.800;2023-03-19T12:47:04;99365.47;;;16.64;52.48
63552;BME280;49698;48.072;7.800;2023-03-19T12:49:36;99361.38;;;16.58;52.74
63552;BME280;49698;48.072;7.800;2023-03-19T12:52:14;99366.47;;;16.51;52.99
63552;BME280;49698;48.072;7.800;2023-03-19T12:54:49;99362.19;;;16.41;53.69
63552;BME280;49698;48.072;7.800;2023-03-19T12:57:26;99361.75;;;16.30;54.21
63552;BME280;49698;48.072;7.800;2023-03-19T13:00:02;99363.66;;;16.21;54.78
63552;BME280;49698;48.072;7.800;2023-03-19T13:02:37;99356.00;;;16.14;55.20
63552;BME280;49698;48.072;7.800;2023-03-19T13:05:16;99356.97;;;16.10;55.74
63552;BME280;49698;48.072;7.800;2023-03-19T13:07:53;99352.47;;;16.14;55.50
63552;BME280;49698;48.072;7.800;2023-03-19T13:10:29;99356.78;;;16.24;55.78
63552;BME280;49698;48.072;7.800;2023-03-19T13:12:59;99344.53;;;16.26;55.56
63552;BME280;49698;48.072;7.800;2023-03-19T13:15:32;99353.44;;;16.35;55.52
63552;BME280;49698;48.072;7.800;2023-03-19T13:18:16;99354.03;;;16.50;55.48
63552;BME280;49698;48.072;7.800;2023-03-19T13:20:56;99343.13;;;16.67;54.85
63552;BME280;49698;48.072;7.800;2023-03-19T13:23:35;99344.03;;;16.89;54.30
63552;BME280;49698;48.072;7.800;2023-03-19T13:26:06;99348.31;;;16.98;53.77